Time;durP1;ratioP1;P1;durP2;ratioP2;P2;SDS_P1;SDS_P2;PMS_P1;PMS_P2;Temp;Humidity;BMP_temperature;BMP_pressure;BME280_temperature;BME280_humidity;BME280_pressure;Samples;Min_cycle;Max_cycle;Signal;HPM_P1;HPM_P2
2023/08/18 00:02:40;;;;;;;;;;;;;;;;;;6311686;28;19924;-56
2023/08/18 00:05:40;;;;;;;;;;;;;;;;;;6313062;28;19924;-56
2023/08/18 00:08:42;;;;;;;;;;;;;;;;;;6307736;28;20014;-56
2023/08/18 00:11:42;;;;;;;;;;;;;;;;;;6290672;28;19924;-54
2023/08/18 00:14:43;;;;;;;;;;;;;;;;;;6301893;28;19928;-53
2023/08/18 00:17:43;;;;;;;;;;;;;;;;;;6307797;28;19928;-52
2023/08/18 00:20:44;;;;;;;;;;;;;;;;;;6310469;28;20580;-55
2023/08/18 00:23:44;;;;;;;;;;;;;;;;;;6300342;28;19966;-53
2023/08/18 00:26:45;;;;;;;;;;;;;;;;;;6311431;28;19935;-53
2023/08/18 00:29:46;;;;;;;;;;;;;;;;;;6309817;28;20014;-55
2023/08/18 00:32:46;;;;;;;;;;;;;;;;;;6295372;28;19989;-57
2023/08/18 00:35:47;;;;;;;;;;;;;;;;;;6317929;28;20296;-55
2023/08/18 00:38:48;;;;;;;;;;;;;;;;;;6295751;28;19921;-54
2023/08/18 00:41:48;;;;;;;;;;;;;;;;;;6306856;28;20367;-56
2023/08/18 00:44:49;;;;;;;;;;;;;;;;;;6302128;28;19921;-55
2023/08/18 00:47:49;;;;;;;;;;;;;;;;;;6319351;28;20738;-56
2023/08/18 00:50:50;;;;;;;;;;;;;;;;;;6311507;28;19928;-54
2023/08/18 00:53:51;;;;;;;;;;;;;;;;;;6308149;28;19932;-53
2023/08/18 00:56:51;;;;;;;;;;;;;;;;;;6315535;28;19924;-54
2023/08/18 00:59:52;;;;;;;;;;;;;;;;;;6311775;28;19924;-52
2023/08/18 01:02:52;;;;;;;;;;;;;;;;;;6312829;28;20449;-55
2023/08/18 01:05:53;;;;;;;;;;;;;;;;;;6315257;28;19920;-54
2023/08/18 01:08:54;;;;;;;;;;;;;;;;;;6316838;28;20371;-55
2023/08/18 01:11:54;;;;;;;;;;;;;;;;;;6313927;28;19920;-54
2023/08/18 01:14:58;;;;;;;;;;;;;;;;;;6306774;28;19927;-55
2023/08/18 01:18:01;;;;;;;;;;;;;;;;;;6304489;28;19920;-55
2023/08/18 01:21:02;;;;;;;;;;;;;;;;;;6313367;28;19947;-52
2023/08/18 01:24:03;;;;;;;;;;;;;;;;;;6314466;28;20464;-54
2023/08/18 01:27:03;;;;;;;;;;;;;;;;;;6315297;28;19927;-51
2023/08/18 01:30:04;;;;;;;;;;;;;;;;;;6311325;28;19924;-53
2023/08/18 01:33:15;;;;;;;;;;;;;;;;;;6310130;28;20097;-55
2023/08/18 01:36:17;;;;;;;;;;;;;;;;;;6307086;28;19927;-54
2023/08/18 01:39:18;;;;;;;;;;;;;;;;;;6314768;28;20405;-52
2023/08/18 01:42:19;;;;;;;;;;;;;;;;;;6312242;28;19953;-55
2023/08/18 01:45:19;;;;;;;;;;;;;;;;;;6317042;28;19923;-57
2023/08/18 01:48:20;;;;;;;;;;;;;;;;;;6306242;28;19924;-52
2023/08/18 01:51:20;;;;;;;;;;;;;;;;;;6315103;28;20374;-52
2023/08/18 01:54:21;;;;;;;;;;;;;;;;;;6307649;28;20309;-51
2023/08/18 01:57:21;;;;;;;;;;;;;;;;;;6316489;28;19920;-56
2023/08/18 02:00:22;;;;;;;;;;;;;;;;;;6311472;28;19926;-54
2023/08/18 02:03:25;;;;;;;;;;;;;;;;;;6312592;28;19931;-55
2023/08/18 02:06:26;;;;;;;;;;;;;;;;;;6311397;28;20012;-53
2023/08/18 02:09:27;;;;;;;;;;;;;;;;;;6315091;28;19924;-53
2023/08/18 02:12:27;;;;;;;;;;;;;;;;;;6314053;28;19924;-54
2023/08/18 02:15:28;;;;;;;;;;;;;;;;;;6319528;28;19943;-52
2023/08/18 02:18:28;;;;;;;;;;;;;;;;;;6315504;28;19975;-56
2023/08/18 02:21:31;;;;;;;;;;;;;;;;;;6315677;28;19924;-53
2023/08/18 02:24:31;;;;;;;;;;;;;;;;;;6314621;28;19930;-52
2023/08/18 02:27:32;;;;;;;;;;;;;;;;;;6319810;28;20340;-56
2023/08/18 02:30:32;;;;;;;;;;;;;;;;;;6314697;28;20374;-55
2023/08/18 02:33:34;;;;;;;;;;;;;;;;;;6314776;28;19927;-55
2023/08/18 02:36:35;;;;;;;;;;;;;;;;;;6312916;28;20486;-57
2023/08/18 02:39:35;;;;;;;;;;;;;;;;;;6294672;28;19928;-53
2023/08/18 02:42:36;;;;;;;;;;;;;;;;;;6311290;28;20379;-56
2023/08/18 02:45:36;;;;;;;;;;;;;;;;;;6313964;28;19920;-54
2023/08/18 02:48:37;;;;;;;;;;;;;;;;;;6318317;28;20006;-55
2023/08/18 02:51:37;;;;;;;;;;;;;;;;;;6314325;28;19931;-55
2023/08/18 02:54:38;;;;;;;;;;;;;;;;;;6312300;28;20400;-56
2023/08/18 02:57:38;;;;;;;;;;;;;;;;;;6315109;28;19923;-53
2023/08/18 03:00:39;;;;;;;;;;;;;;;;;;6319206;28;19920;-52
2023/08/18 03:03:39;;;;;;;;;;;;;;;;;;6312328;28;20401;-54
2023/08/18 03:06:40;;;;;;;;;;;;;;;;;;6313232;28;19919;-53
2023/08/18 03:09:42;;;;;;;;;;;;;;;;;;6314142;28;20398;-56
2023/08/18 03:12:42;;;;;;;;;;;;;;;;;;6316830;28;19924;-53
2023/08/18 03:15:43;;;;;;;;;;;;;;;;;;6314172;28;20367;-55
2023/08/18 03:18:44;;;;;;;;;;;;;;;;;;6314899;28;19920;-54
2023/08/18 03:21:44;;;;;;;;;;;;;;;;;;6313981;28;20374;-57
2023/08/18 03:24:45;;;;;;;;;;;;;;;;;;6317277;28;19924;-54
2023/08/18 03:27:47;;;;;;;;;;;;;;;;;;6314739;28;19977;-50
2023/08/18 03:30:48;;;;;;;;;;;;;;;;;;6314523;28;19920;-56
2023/08/18 03:33:48;;;;;;;;;;;;;;;;;;6313914;28;19947;-54
2023/08/18 03:36:49;;;;;;;;;;;;;;;;;;6313003;28;20279;-53
2023/08/18 03:39:51;;;;;;;;;;;;;;;;;;6318083;28;19920;-55
2023/08/18 03:42:52;;;;;;;;;;;;;;;;;;6314427;28;19924;-52
2023/08/18 03:45:53;;;;;;;;;;;;;;;;;;6312433;28;19924;-51
2023/08/18 03:48:54;;;;;;;;;;;;;;;;;;6313248;28;19924;-54
2023/08/18 03:51:55;;;;;;;;;;;;;;;;;;6305584;28;19931;-55
2023/08/18 03:54:55;;;;;;;;;;;;;;;;;;6308314;28;19932;-56
2023/08/18 03:57:56;;;;;;;;;;;;;;;;;;6305552;28;20689;-53
2023/08/18 04:01:00;;;;;;;;;;;;;;;;;;6308990;28;19924;-55
2023/08/18 04:04:00;;;;;;;;;;;;;;;;;;6308847;28;19923;-52
2023/08/18 04:07:01;;;;;;;;;;;;;;;;;;6311694;28;19997;-56
2023/08/18 04:10:01;;;;;;;;;;;;;;;;;;6305734;28;19947;-53
2023/08/18 04:13:02;;;;;;;;;;;;;;;;;;6304158;28;19950;-57
2023/08/18 04:16:03;;;;;;;;;;;;;;;;;;6291252;28;20778;-53
2023/08/18 04:19:04;;;;;;;;;;;;;;;;;;6293980;28;20012;-55
2023/08/18 04:22:04;;;;;;;;;;;;;;;;;;6296749;28;19967;-55
2023/08/18 04:25:05;;;;;;;;;;;;;;;;;;6296096;28;20040;-55
2023/08/18 04:28:05;;;;;;;;;;;;;;;;;;6297638;28;20303;-54
2023/08/18 04:31:06;;;;;;;;;;;;;;;;;;6300847;28;19928;-56
2023/08/18 04:34:07;;;;;;;;;;;;;;;;;;6297801;28;20372;-53
2023/08/18 04:37:08;;;;;;;;;;;;;;;;;;6301552;28;19927;-55
2023/08/18 04:40:08;;;;;;;;;;;;;;;;;;6300496;28;20366;-53
2023/08/18 04:43:09;;;;;;;;;;;;;;;;;;6300395;28;20021;-58
2023/08/18 04:46:09;;;;;;;;;;;;;;;;;;6298963;28;19935;-56
2023/08/18 04:49:10;;;;;;;;;;;;;;;;;;6293674;28;20286;-56
2023/08/18 04:52:11;;;;;;;;;;;;;;;;;;6295112;28;19955;-54
2023/08/18 04:55:11;;;;;;;;;;;;;;;;;;6295938;28;19928;-57
2023/08/18 04:58:15;;;;;;;;;;;;;;;;;;6297615;28;20390;-54
2023/08/18 05:01:15;;;;;;;;;;;;;;;;;;6304923;28;19928;-55
2023/08/18 05:04:16;;;;;;;;;;;;;;;;;;6305726;28;19924;-56
2023/08/18 05:07:17;;;;;;;;;;;;;;;;;;6297770;28;19924;-56
2023/08/18 05:10:17;;;;;;;;;;;;;;;;;;6303197;28;19931;-55
2023/08/18 05:13:18;;;;;;;;;;;;;;;;;;6300305;28;19928;-56
2023/08/18 05:16:18;;;;;;;;;;;;;;;;;;6303049;28;19920;-56
2023/08/18 05:19:19;;;;;;;;;;;;;;;;;;6298693;28;19920;-57
2023/08/18 05:22:21;;;;;;;;;;;;;;;;;;6307776;28;19919;-57
2023/08/18 05:25:22;;;;;;;;;;;;;;;;;;6304476;28;20384;-57
2023/08/18 05:28:23;;;;;;;;;;;;;;;;;;6320665;28;19924;-58
2023/08/18 05:31:24;;;;;;;;;;;;;;;;;;6307019;28;19924;-55
2023/08/18 05:34:24;;;;;;;;;;;;;;;;;;6318787;28;19924;-56
2023/08/18 05:37:25;;;;;;;;;;;;;;;;;;6301869;28;19928;-56
2023/08/18 05:40:25;;;;;;;;;;;;;;;;;;6318910;28;19928;-57
2023/08/18 05:43:26;;;;;;;;;;;;;;;;;;6315168;28;19924;-55
2023/08/18 05:46:26;;;;;;;;;;;;;;;;;;6294655;28;19947;-54
2023/08/18 05:49:27;;;;;;;;;;;;;;;;;;6297589;28;19924;-56
2023/08/18 05:52:27;;;;;;;;;;;;;;;;;;6306126;28;19920;-54
2023/08/18 05:55:28;;;;;;;;;;;;;;;;;;6314534;28;19927;-57
2023/08/18 05:58:29;;;;;;;;;;;;;;;;;;6310862;28;20271;-58
2023/08/18 06:01:29;;;;;;;;;;;;;;;;;;6314693;28;19928;-54
2023/08/18 06:04:30;;;;;;;;;;;;;;;;;;6302135;28;19920;-58
2023/08/18 06:07:30;;;;;;;;;;;;;;;;;;6314233;28;19969;-59
2023/08/18 06:10:31;;;;;;;;;;;;;;;;;;6319247;28;19920;-59
2023/08/18 06:13:32;;;;;;;;;;;;;;;;;;6308739;28;19924;-57
2023/08/18 06:16:32;;;;;;;;;;;;;;;;;;6304232;28;19924;-54
2023/08/18 06:19:32;;;;;;;;;;;;;;;;;;6313061;28;19924;-53
2023/08/18 06:22:33;;;;;;;;;;;;;;;;;;6291632;28;19969;-56
2023/08/18 06:25:33;;;;;;;;;;;;;;;;;;6318712;28;19924;-53
2023/08/18 06:28:34;;;;;;;;;;;;;;;;;;6311741;28;19976;-57
2023/08/18 06:31:34;;;;;;;;;;;;;;;;;;6319510;28;19935;-58
2023/08/18 06:34:35;;;;;;;;;;;;;;;;;;6313625;28;19934;-57
2023/08/18 06:37:36;;;;;;;;;;;;;;;;;;6312444;28;19963;-56
2023/08/18 06:40:36;;;;;;;;;;;;;;;;;;6315169;28;20423;-57
2023/08/18 06:43:37;;;;;;;;;;;;;;;;;;6311323;28;19958;-59
2023/08/18 06:46:37;;;;;;;;;;;;;;;;;;6316611;28;19931;-59
2023/08/18 06:49:38;;;;;;;;;;;;;;;;;;6314711;28;19959;-57
2023/08/18 06:52:38;;;;;;;;;;;;;;;;;;6316022;28;19923;-58
2023/08/18 06:55:39;;;;;;;;;;;;;;;;;;6312707;28;19920;-54
2023/08/18 06:58:39;;;;;;;;;;;;;;;;;;6303834;28;20363;-55
2023/08/18 07:01:40;;;;;;;;;;;;;;;;;;6293007;28;19952;-58
2023/08/18 07:04:41;;;;;;;;;;;;;;;;;;6291263;28;19920;-57
2023/08/18 07:07:41;;;;;;;;;;;;;;;;;;6293197;28;19920;-59
2023/08/18 07:10:42;;;;;;;;;;;;;;;;;;6295439;28;19920;-59
2023/08/18 07:13:43;;;;;;;;;;;;;;;;;;6311760;28;19982;-55
2023/08/18 07:16:44;;;;;;;;;;;;;;;;;;6304399;28;19920;-57
2023/08/18 07:19:45;;;;;;;;;;;;;;;;;;6313182;28;19919;-56
2023/08/18 07:22:45;;;;;;;;;;;;;;;;;;6315187;28;19924;-55
2023/08/18 07:25:46;;;;;;;;;;;;;;;;;;6316316;28;19953;-57
2023/08/18 07:28:46;;;;;;;;;;;;;;;;;;6316337;28;20006;-58
2023/08/18 07:31:47;;;;;;;;;;;;;;;;;;6313288;28;19920;-58
2023/08/18 07:34:47;;;;;;;;;;;;;;;;;;6313223;28;19924;-58
2023/08/18 07:37:48;;;;;;;;;;;;;;;;;;6317491;28;19924;-54
2023/08/18 07:40:48;;;;;;;;;;;;;;;;;;6303124;28;20411;-55
2023/08/18 07:43:49;;;;;;;;;;;;;;;;;;6316239;28;19927;-56
2023/08/18 07:46:50;;;;;;;;;;;;;;;;;;6306021;28;19928;-58
2023/08/18 07:49:51;;;;;;;;;;;;;;;;;;6311307;28;19970;-58
2023/08/18 07:52:52;;;;;;;;;;;;;;;;;;6312288;28;20293;-53
2023/08/18 07:55:53;;;;;;;;;;;;;;;;;;6311928;28;20393;-56
2023/08/18 07:58:53;;;;;;;;;;;;;;;;;;6298283;28;19924;-57
2023/08/18 08:01:54;;;;;;;;;;;;;;;;;;6315266;28;19936;-56
2023/08/18 08:04:54;;;;;;;;;;;;;;;;;;6305647;28;19935;-55
2023/08/18 08:07:55;;;;;;;;;;;;;;;;;;6308592;28;19920;-52
2023/08/18 08:10:55;;;;;;;;;;;;;;;;;;6314859;28;19920;-52
2023/08/18 08:13:56;;;;;;;;;;;;;;;;;;6302540;28;19924;-57
2023/08/18 08:16:56;;;;;;;;;;;;;;;;;;6317096;28;20397;-54
2023/08/18 08:19:58;;;;;;;;;;;;;;;;;;6304808;28;19926;-58
2023/08/18 08:22:58;;;;;;;;;;;;;;;;;;6310783;28;19965;-59
2023/08/18 08:25:59;;;;;;;;;;;;;;;;;;6311818;28;20402;-55
2023/08/18 08:28:59;;;;;;;;;;;;;;;;;;6305134;28;20298;-54
2023/08/18 08:32:00;;;;;;;;;;;;;;;;;;6315745;28;19920;-55
2023/08/18 08:35:00;;;;;;;;;;;;;;;;;;6312429;28;20396;-54
2023/08/18 08:38:01;;;;;;;;;;;;;;;;;;6315565;28;19962;-57
2023/08/18 08:41:01;;;;;;;;;;;;;;;;;;6314400;28;20294;-56
2023/08/18 08:44:02;;;;;;;;;;;;;;;;;;6307558;28;20042;-58
2023/08/18 08:47:03;;;;;;;;;;;;;;;;;;6311649;28;19924;-56
2023/08/18 08:50:04;;;;;;;;;;;;;;;;;;6306206;28;19926;-56
2023/08/18 08:53:06;;;;;;;;;;;;;;;;;;6314897;28;19928;-56
2023/08/18 08:56:07;;;;;;;;;;;;;;;;;;6309014;28;19923;-55
2023/08/18 08:59:08;;;;;;;;;;;;;;;;;;6308415;28;20279;-57
2023/08/18 09:02:08;;;;;;;;;;;;;;;;;;6317281;28;19920;-57
2023/08/18 09:05:10;;;;;;;;;;;;;;;;;;6304521;28;19935;-58
2023/08/18 09:08:11;;;;;;;;;;;;;;;;;;6302747;28;20375;-58
2023/08/18 09:11:11;;;;;;;;;;;;;;;;;;6311267;28;19920;-57
2023/08/18 09:14:16;;;;;;;;;;;;;;;;;;6319189;28;19920;-57
2023/08/18 09:17:18;;;;;;;;;;;;;;;;;;6311145;28;21102;-57
2023/08/18 09:20:19;;;;;;;;;;;;;;;;;;6306003;28;20015;-58
2023/08/18 09:23:19;;;;;;;;;;;;;;;;;;6319745;28;19931;-58
2023/08/18 09:26:20;;;;;;;;;;;;;;;;;;6314889;28;19930;-58
2023/08/18 09:29:20;;;;;;;;;;;;;;;;;;6312463;28;20382;-56
2023/08/18 09:32:24;;;;;;;;;;;;;;;;;;6316198;28;20388;-59
2023/08/18 09:35:24;;;;;;;;;;;;;;;;;;6319538;28;20357;-58
2023/08/18 09:38:27;;;;;;;;;;;;;;;;;;6319414;28;19926;-58
2023/08/18 09:41:28;;;;;;;;;;;;;;;;;;6307551;28;19931;-57
2023/08/18 09:44:28;;;;;;;;;;;;;;;;;;6315452;28;19924;-57
2023/08/18 09:47:29;;;;;;;;;;;;;;;;;;6314981;28;19924;-56
2023/08/18 09:50:30;;;;;;;;;;;;;;;;;;6314567;28;20350;-55
2023/08/18 09:53:31;;;;;;;;;;;;;;;;;;6327207;28;19929;-54
2023/08/18 09:56:35;;;;;;;;;;;;;;;;;;6322358;28;19919;-57
2023/08/18 09:59:38;;;;;;;;;;;;;;;;;;6309219;28;19924;-55
2023/08/18 10:02:39;;;;;;;;;;;;;;;;;;6306480;28;19926;-55
2023/08/18 10:05:40;;;;;;;;;;;;;;;;;;6319621;28;20264;-55
2023/08/18 10:08:41;;;;;;;;;;;;;;;;;;6310054;28;19923;-55
2023/08/18 10:11:41;;;;;;;;;;;;;;;;;;6312972;28;19924;-57
2023/08/18 10:14:43;;;;;;;;;;;;;;;;;;6310403;28;19923;-59
2023/08/18 10:17:43;;;;;;;;;;;;;;;;;;6312251;28;19969;-64
2023/08/18 10:20:50;;;;;;;;;;;;;;;;;;6319639;28;19924;-63
2023/08/18 10:23:53;;;;;;;;;;;;;;;;;;6310921;28;19932;-64
2023/08/18 10:26:53;;;;;;;;;;;;;;;;;;6302853;28;19920;-64
2023/08/18 10:30:00;;;;;;;;;;;;;;;;;;6308745;28;19927;-60
2023/08/18 10:33:08;;;;;;;;;;;;;;;;;;6305614;28;20062;-59
2023/08/18 10:36:09;;;;;;;;;;;;;;;;;;6317837;28;19920;-69
2023/08/18 10:39:23;;;;;;;;;;;;;;;;;;6316219;28;19926;-59
2023/08/18 10:42:23;;;;;;;;;;;;;;;;;;6320339;28;19921;-61
2023/08/18 10:45:26;;;;;;;;;;;;;;;;;;6307896;28;20436;-61
2023/08/18 10:48:30;;;;;;;;;;;;;;;;;;6307664;28;20363;-59
2023/08/18 10:51:31;;;;;;;;;;;;;;;;;;6311128;28;19927;-58
2023/08/18 10:54:31;;;;;;;;;;;;;;;;;;6303650;28;19924;-59
2023/08/18 10:57:33;;;;;;;;;;;;;;;;;;6315051;28;20014;-59
2023/08/18 11:00:35;;;;;;;;;;;;;;;;;;6305726;28;20050;-59
2023/08/18 11:03:36;;;;;;;;;;;;;;;;;;6303104;28;19927;-56
2023/08/18 11:06:36;;;;;;;;;;;;;;;;;;6317039;28;19929;-57
2023/08/18 11:09:37;;;;;;;;;;;;;;;;;;6314911;28;19920;-59
2023/08/18 11:12:39;;;;;;;;;;;;;;;;;;6316175;28;20368;-59
2023/08/18 11:15:40;;;;;;;;;;;;;;;;;;6310608;28;19924;-59
2023/08/18 11:18:41;;;;;;;;;;;;;;;;;;6313227;28;19927;-60
2023/08/18 11:21:41;;;;;;;;;;;;;;;;;;6295058;28;20010;-59
2023/08/18 11:24:43;;;;;;;;;;;;;;;;;;6294398;28;19988;-60
2023/08/18 11:27:45;;;;;;;;;;;;;;;;;;6316334;28;20019;-61
2023/08/18 11:30:45;;;;;;;;;;;;;;;;;;6306680;28;20416;-61
2023/08/18 11:33:46;;;;;;;;;;;;;;;;;;6316328;28;19947;-60
2023/08/18 11:36:46;;;;;;;;;;;;;;;;;;6313779;28;19928;-60
2023/08/18 11:39:47;;;;;;;;;;;;;;;;;;6316775;28;19923;-60
2023/08/18 11:42:48;;;;;;;;;;;;;;;;;;6316934;28;19924;-60
2023/08/18 11:45:50;;;;;;;;;;;;;;;;;;6300259;28;20305;-61
2023/08/18 11:48:52;;;;;;;;;;;;;;;;;;6297398;28;20018;-60
2023/08/18 11:51:59;;;;;;;;;;;;;;;;;;6305663;28;19920;-60
2023/08/18 11:54:59;;;;;;;;;;;;;;;;;;6290604;28;19963;-59
2023/08/18 11:58:10;;;;;;;;;;;;;;;;;;6291209;28;19920;-60
2023/08/18 12:01:11;;;;;;;;;;;;;;;;;;6286231;28;20272;-61
2023/08/18 12:04:12;;;;;;;;;;;;;;;;;;6300308;28;19924;-60
2023/08/18 12:07:12;;;;;;;;;;;;;;;;;;6312059;28;19924;-60
2023/08/18 12:10:13;;;;;;;;;;;;;;;;;;6314854;28;19928;-60
2023/08/18 12:13:13;;;;;;;;;;;;;;;;;;6316866;28;19920;-60
2023/08/18 12:16:14;;;;;;;;;;;;;;;;;;6312361;28;20038;-60
2023/08/18 12:19:15;;;;;;;;;;;;;;;;;;6316150;28;19926;-60
2023/08/18 12:22:16;;;;;;;;;;;;;;;;;;6316569;28;19924;-65
2023/08/18 12:25:17;;;;;;;;;;;;;;;;;;6308852;28;19920;-61
2023/08/18 12:28:18;;;;;;;;;;;;;;;;;;6282482;28;19981;-63
2023/08/18 12:31:22;;;;;;;;;;;;;;;;;;6284956;28;19925;-61
2023/08/18 12:34:22;;;;;;;;;;;;;;;;;;6290440;28;19924;-61
2023/08/18 12:37:23;;;;;;;;;;;;;;;;;;6281938;28;19963;-61
2023/08/18 12:40:24;;;;;;;;;;;;;;;;;;6302944;28;19920;-60
2023/08/18 12:43:25;;;;;;;;;;;;;;;;;;6319039;28;19920;-60
2023/08/18 12:46:25;;;;;;;;;;;;;;;;;;6320637;28;20367;-61
2023/08/18 12:49:26;;;;;;;;;;;;;;;;;;6323869;28;20033;-64
2023/08/18 12:52:26;;;;;;;;;;;;;;;;;;6324026;28;19920;-67
2023/08/18 12:55:27;;;;;;;;;;;;;;;;;;6323410;28;19970;-71
2023/08/18 12:58:27;;;;;;;;;;;;;;;;;;6312082;28;19920;-64
2023/08/18 13:01:28;;;;;;;;;;;;;;;;;;6308992;28;20270;-60
2023/08/18 13:04:28;;;;;;;;;;;;;;;;;;6308132;28;19926;-63
2023/08/18 13:07:29;;;;;;;;;;;;;;;;;;6298317;28;20302;-64
2023/08/18 13:10:29;;;;;;;;;;;;;;;;;;6299462;28;20263;-60
2023/08/18 13:13:30;;;;;;;;;;;;;;;;;;6299169;28;19934;-60
2023/08/18 13:16:32;;;;;;;;;;;;;;;;;;6303592;28;19928;-64
2023/08/18 13:19:33;;;;;;;;;;;;;;;;;;6310695;28;19924;-60
2023/08/18 13:22:35;;;;;;;;;;;;;;;;;;6321628;28;19928;-60
2023/08/18 13:25:36;;;;;;;;;;;;;;;;;;6310019;28;19974;-67
2023/08/18 13:28:36;;;;;;;;;;;;;;;;;;6316451;28;19931;-62
2023/08/18 13:31:37;;;;;;;;;;;;;;;;;;6313250;28;19920;-72
2023/08/18 13:34:37;;;;;;;;;;;;;;;;;;6316605;28;19920;-73
2023/08/18 13:37:39;;;;;;;;;;;;;;;;;;6322424;28;19946;-71
2023/08/18 13:40:39;;;;;;;;;;;;;;;;;;6318749;28;19923;-60
2023/08/18 13:43:40;;;;;;;;;;;;;;;;;;6322298;28;20393;-60
2023/08/18 13:46:41;;;;;;;;;;;;;;;;;;6322072;28;19942;-62
2023/08/18 13:49:41;;;;;;;;;;;;;;;;;;6306479;28;19920;-77
2023/08/18 13:52:42;;;;;;;;;;;;;;;;;;6326417;28;19973;-60
2023/08/18 13:55:43;;;;;;;;;;;;;;;;;;6296327;28;19928;-61
2023/08/18 13:58:43;;;;;;;;;;;;;;;;;;6318155;28;19919;-60
2023/08/18 14:01:44;;;;;;;;;;;;;;;;;;6319925;28;19926;-60
2023/08/18 14:04:44;;;;;;;;;;;;;;;;;;6322084;28;19924;-61
2023/08/18 14:07:45;;;;;;;;;;;;;;;;;;6332106;28;19930;-61
2023/08/18 14:10:46;;;;;;;;;;;;;;;;;;6328719;28;19932;-69
2023/08/18 14:13:46;;;;;;;;;;;;;;;;;;6328090;28;19934;-73
2023/08/18 14:16:47;;;;;;;;;;;;;;;;;;6318394;28;19924;-70
2023/08/18 14:19:47;;;;;;;;;;;;;;;;;;6322711;28;19924;-61
2023/08/18 14:22:51;;;;;;;;;;;;;;;;;;6319171;28;19920;-63
2023/08/18 14:25:53;;;;;;;;;;;;;;;;;;6317539;28;19927;-66
2023/08/18 14:28:54;;;;;;;;;;;;;;;;;;6319342;28;20400;-66
2023/08/18 14:31:54;;;;;;;;;;;;;;;;;;6319380;28;19928;-66
2023/08/18 14:34:55;;;;;;;;;;;;;;;;;;6318445;28;19932;-67
2023/08/18 14:37:56;;;;;;;;;;;;;;;;;;6318124;28;20400;-63
2023/08/18 14:40:57;;;;;;;;;;;;;;;;;;6318497;28;19924;-66
2023/08/18 14:43:57;;;;;;;;;;;;;;;;;;6319328;28;19967;-68
2023/08/18 14:46:58;;;;;;;;;;;;;;;;;;6316803;28;19975;-68
2023/08/18 14:49:58;;;;;;;;;;;;;;;;;;6318084;28;19924;-63
2023/08/18 14:52:59;;;;;;;;;;;;;;;;;;6318885;28;20010;-62
2023/08/18 14:55:59;;;;;;;;;;;;;;;;;;6317454;28;19927;-76
2023/08/18 14:59:00;;;;;;;;;;;;;;;;;;6318801;28;19920;-70
2023/08/18 15:02:00;;;;;;;;;;;;;;;;;;6320939;28;19928;-62
2023/08/18 15:05:01;;;;;;;;;;;;;;;;;;6330061;28;20022;-63
2023/08/18 15:08:03;;;;;;;;;;;;;;;;;;6317253;28;20309;-63
2023/08/18 15:11:04;;;;;;;;;;;;;;;;;;6322336;28;19920;-62
2023/08/18 15:14:05;;;;;;;;;;;;;;;;;;6325288;28;19934;-62
2023/08/18 15:17:05;;;;;;;;;;;;;;;;;;6316656;28;19920;-62
2023/08/18 15:20:06;;;;;;;;;;;;;;;;;;6317598;28;20019;-61
2023/08/18 15:23:07;;;;;;;;;;;;;;;;;;6317626;28;19977;-60
2023/08/18 15:26:07;;;;;;;;;;;;;;;;;;6295023;28;20354;-61
2023/08/18 15:29:08;;;;;;;;;;;;;;;;;;6294530;28;19964;-61
2023/08/18 15:32:08;;;;;;;;;;;;;;;;;;6293272;28;19928;-61
2023/08/18 15:35:09;;;;;;;;;;;;;;;;;;6290170;28;19920;-66
2023/08/18 15:38:10;;;;;;;;;;;;;;;;;;6290280;28;20369;-60
2023/08/18 15:41:10;;;;;;;;;;;;;;;;;;6296929;28;20007;-61
2023/08/18 15:44:11;;;;;;;;;;;;;;;;;;6293761;28;19928;-61
2023/08/18 15:47:11;;;;;;;;;;;;;;;;;;6291514;28;19924;-61
2023/08/18 15:50:11;;;;;;;;;;;;;;;;;;6291498;28;20313;-61
2023/08/18 15:53:12;;;;;;;;;;;;;;;;;;6292006;28;19923;-61
2023/08/18 15:56:13;;;;;;;;;;;;;;;;;;6290503;28;19920;-61
2023/08/18 15:59:13;;;;;;;;;;;;;;;;;;6292937;28;19928;-61
2023/08/18 16:02:14;;;;;;;;;;;;;;;;;;6289991;28;19931;-61
2023/08/18 16:05:14;;;;;;;;;;;;;;;;;;6288087;28;19920;-61
2023/08/18 16:08:15;;;;;;;;;;;;;;;;;;6295158;28;19927;-65
2023/08/18 16:11:16;;;;;;;;;;;;;;;;;;6290731;28;19955;-61
2023/08/18 16:14:17;;;;;;;;;;;;;;;;;;6292996;28;20294;-61
2023/08/18 16:17:17;;;;;;;;;;;;;;;;;;6291767;28;19924;-61
2023/08/18 16:20:18;;;;;;;;;;;;;;;;;;6292853;28;19924;-60
2023/08/18 16:23:19;;;;;;;;;;;;;;;;;;6292866;28;19931;-62
2023/08/18 16:26:19;;;;;;;;;;;;;;;;;;6292205;28;19924;-60
2023/08/18 16:29:20;;;;;;;;;;;;;;;;;;6294976;28;19926;-60
2023/08/18 16:32:20;;;;;;;;;;;;;;;;;;6296139;28;20017;-62
2023/08/18 16:35:21;;;;;;;;;;;;;;;;;;6290658;28;19924;-61
2023/08/18 16:38:21;;;;;;;;;;;;;;;;;;6291773;28;20437;-61
2023/08/18 16:41:22;;;;;;;;;;;;;;;;;;6289634;28;20029;-61
2023/08/18 16:44:22;;;;;;;;;;;;;;;;;;6298831;28;19927;-62
2023/08/18 16:47:23;;;;;;;;;;;;;;;;;;6295766;28;20991;-60
2023/08/18 16:50:23;;;;;;;;;;;;;;;;;;6296389;28;19924;-63
2023/08/18 16:53:24;;;;;;;;;;;;;;;;;;6294696;28;19920;-61
2023/08/18 16:56:24;;;;;;;;;;;;;;;;;;6301491;28;20267;-61
2023/08/18 16:59:26;;;;;;;;;;;;;;;;;;6298919;28;19920;-61
2023/08/18 17:02:26;;;;;;;;;;;;;;;;;;6302735;28;19924;-61
2023/08/18 17:05:31;;;;;;;;;;;;;;;;;;6300207;28;20284;-63
2023/08/18 17:08:31;;;;;;;;;;;;;;;;;;6301000;28;19920;-67
2023/08/18 17:11:32;;;;;;;;;;;;;;;;;;6296485;28;20264;-67
2023/08/18 17:14:33;;;;;;;;;;;;;;;;;;6299829;28;19920;-67
2023/08/18 17:17:33;;;;;;;;;;;;;;;;;;6297858;28;20058;-62
2023/08/18 17:20:34;;;;;;;;;;;;;;;;;;6300324;28;19920;-62
2023/08/18 17:23:34;;;;;;;;;;;;;;;;;;6309929;28;19927;-64
2023/08/18 17:26:35;;;;;;;;;;;;;;;;;;6304864;28;20359;-69
2023/08/18 17:29:36;;;;;;;;;;;;;;;;;;6289505;28;19924;-66
2023/08/18 17:32:36;;;;;;;;;;;;;;;;;;6310777;28;20420;-65
2023/08/18 17:35:37;;;;;;;;;;;;;;;;;;6305536;28;20395;-64
2023/08/18 17:38:38;;;;;;;;;;;;;;;;;;6305174;28;20050;-61
2023/08/18 17:41:39;;;;;;;;;;;;;;;;;;6305918;28;20015;-69
2023/08/18 17:44:39;;;;;;;;;;;;;;;;;;6303984;28;19924;-62
2023/08/18 17:47:40;;;;;;;;;;;;;;;;;;6309098;28;19930;-63
2023/08/18 17:50:40;;;;;;;;;;;;;;;;;;6310663;28;20439;-62
2023/08/18 17:53:41;;;;;;;;;;;;;;;;;;6305091;28;19931;-66
2023/08/18 17:56:41;;;;;;;;;;;;;;;;;;6301691;28;19924;-61
2023/08/18 17:59:42;;;;;;;;;;;;;;;;;;6301411;28;19924;-62
2023/08/18 18:02:43;;;;;;;;;;;;;;;;;;6311719;28;19920;-61
2023/08/18 18:05:44;;;;;;;;;;;;;;;;;;6302194;28;19920;-61
2023/08/18 18:08:44;;;;;;;;;;;;;;;;;;6313286;28;19965;-61
2023/08/18 18:11:45;;;;;;;;;;;;;;;;;;6300948;28;19928;-61
2023/08/18 18:14:46;;;;;;;;;;;;;;;;;;6299035;28;19930;-61
2023/08/18 18:17:47;;;;;;;;;;;;;;;;;;6307637;28;19924;-60
2023/08/18 18:20:47;;;;;;;;;;;;;;;;;;6310005;28;20432;-68
2023/08/18 18:23:48;;;;;;;;;;;;;;;;;;6314158;28;19930;-69
2023/08/18 18:26:48;;;;;;;;;;;;;;;;;;6309969;28;20259;-64
2023/08/18 18:29:49;;;;;;;;;;;;;;;;;;6313634;28;19920;-67
2023/08/18 18:32:49;;;;;;;;;;;;;;;;;;6312022;28;20379;-63
2023/08/18 18:35:50;;;;;;;;;;;;;;;;;;6315376;28;19935;-62
2023/08/18 18:38:50;;;;;;;;;;;;;;;;;;6282922;28;20311;-62
2023/08/18 18:41:51;;;;;;;;;;;;;;;;;;6309062;28;19928;-61
2023/08/18 18:44:52;;;;;;;;;;;;;;;;;;6301086;28;20295;-62
2023/08/18 18:47:53;;;;;;;;;;;;;;;;;;6292439;28;19943;-67
2023/08/18 18:50:53;;;;;;;;;;;;;;;;;;6300030;28;19928;-67
2023/08/18 18:53:54;;;;;;;;;;;;;;;;;;6294590;28;19928;-68
2023/08/18 18:56:55;;;;;;;;;;;;;;;;;;6291853;28;19924;-68
2023/08/18 18:59:56;;;;;;;;;;;;;;;;;;6292801;28;19955;-68
2023/08/18 19:02:56;;;;;;;;;;;;;;;;;;6294625;28;19928;-60
2023/08/18 19:05:57;;;;;;;;;;;;;;;;;;6299187;28;19939;-59
2023/08/18 19:08:57;;;;;;;;;;;;;;;;;;6296332;28;19924;-61
2023/08/18 19:11:58;;;;;;;;;;;;;;;;;;6298323;28;19924;-59
2023/08/18 19:14:58;;;;;;;;;;;;;;;;;;6291825;28;19939;-60
2023/08/18 19:17:59;;;;;;;;;;;;;;;;;;6290350;28;20122;-60
2023/08/18 19:21:00;;;;;;;;;;;;;;;;;;6295680;28;19928;-64
2023/08/18 19:24:01;;;;;;;;;;;;;;;;;;6291109;28;20540;-63
2023/08/18 19:27:01;;;;;;;;;;;;;;;;;;6295344;28;19927;-62
2023/08/18 19:30:02;;;;;;;;;;;;;;;;;;6294643;28;20405;-63
2023/08/18 19:33:03;;;;;;;;;;;;;;;;;;6292504;28;19920;-62
2023/08/18 19:36:04;;;;;;;;;;;;;;;;;;6290552;28;20647;-64
2023/08/18 19:39:04;;;;;;;;;;;;;;;;;;6292850;28;19928;-65
2023/08/18 19:42:06;;;;;;;;;;;;;;;;;;6290410;28;19928;-65
2023/08/18 19:45:07;;;;;;;;;;;;;;;;;;6295198;28;19994;-66
2023/08/18 19:48:07;;;;;;;;;;;;;;;;;;6291450;28;19925;-64
2023/08/18 19:51:09;;;;;;;;;;;;;;;;;;6291395;28;19930;-65
2023/08/18 19:54:11;;;;;;;;;;;;;;;;;;6284197;28;20388;-64
2023/08/18 19:57:11;;;;;;;;;;;;;;;;;;6291798;28;19927;-64
2023/08/18 20:00:13;;;;;;;;;;;;;;;;;;6296442;28;19930;-62
2023/08/18 20:03:13;;;;;;;;;;;;;;;;;;6290749;28;19962;-63
2023/08/18 20:06:14;;;;;;;;;;;;;;;;;;6290257;28;20307;-63
2023/08/18 20:09:14;;;;;;;;;;;;;;;;;;6298883;28;19962;-63
2023/08/18 20:12:15;;;;;;;;;;;;;;;;;;6292178;28;19923;-62
2023/08/18 20:15:15;;;;;;;;;;;;;;;;;;6290188;28;19924;-64
2023/08/18 20:18:16;;;;;;;;;;;;;;;;;;6290780;28;20415;-64
2023/08/18 20:21:16;;;;;;;;;;;;;;;;;;6294670;28;20919;-62
2023/08/18 20:24:17;;;;;;;;;;;;;;;;;;6292485;28;19929;-64
2023/08/18 20:27:17;;;;;;;;;;;;;;;;;;6289603;28;19978;-63
2023/08/18 20:30:19;;;;;;;;;;;;;;;;;;6292708;28;20019;-63
2023/08/18 20:33:20;;;;;;;;;;;;;;;;;;6291527;28;19936;-64
2023/08/18 20:36:21;;;;;;;;;;;;;;;;;;6291614;28;19924;-62